Time;durP1;ratioP1;P1;durP2;ratioP2;P2;SDS_P1;SDS_P2;PMS_P1;PMS_P2;Temp;Humidity;BMP_temperature;BMP_pressure;BME280_temperature;BME280_humidity;BME280_pressure;Samples;Min_cycle;Max_cycle;Signal;HPM_P1;HPM_P2
2021/03/06 00:00:24;;;;;;;2.30;1.30;;;9.80;73.20;;;;;;5127926;27;20039;-42
2021/03/06 00:02:51;;;;;;;2.15;1.45;;;9.80;73.30;;;;;;5124810;27;20039;-43
2021/03/06 00:05:24;;;;;;;2.47;1.73;;;9.80;73.30;;;;;;5125977;27;20448;-42
2021/03/06 00:07:50;;;;;;;2.70;1.30;;;9.80;73.30;;;;;;5125501;27;20548;-43
2021/03/06 00:10:17;;;;;;;2.08;1.50;;;9.80;73.30;;;;;;5125773;27;20031;-40
2021/03/06 00:12:45;;;;;;;1.83;1.05;;;9.80;73.30;;;;;;5122709;27;20058;-40
2021/03/06 00:15:14;;;;;;;2.40;1.33;;;9.80;73.30;;;;;;5124115;27;20035;-40
2021/03/06 00:17:40;;;;;;;2.65;1.77;;;9.80;73.30;;;;;;5125336;27;20062;-42
2021/03/06 00:20:07;;;;;;;2.50;1.25;;;9.70;73.30;;;;;;5125312;27;20505;-42
2021/03/06 00:22:32;;;;;;;1.85;1.30;;;9.80;73.30;;;;;;5125131;27;20078;-40
2021/03/06 00:24:58;;;;;;;1.90;1.40;;;9.80;73.30;;;;;;5124823;27;20078;-42
2021/03/06 00:27:25;;;;;;;1.80;1.65;;;9.80;73.30;;;;;;5125080;27;20039;-40
2021/03/06 00:29:51;;;;;;;1.75;1.20;;;9.80;73.30;;;;;;5126153;27;20050;-41
2021/03/06 00:32:17;;;;;;;2.13;1.50;;;9.70;73.30;;;;;;5122987;27;20039;-43
2021/03/06 00:34:43;;;;;;;2.13;1.63;;;9.70;73.30;;;;;;5124063;27;20161;-44
2021/03/06 00:37:08;;;;;;;1.55;1.33;;;9.70;73.30;;;;;;5123752;27;20118;-44
2021/03/06 00:39:34;;;;;;;1.73;1.30;;;9.80;73.40;;;;;;5124576;27;20050;-42
2021/03/06 00:42:00;;;;;;;1.80;1.30;;;9.80;73.40;;;;;;5122842;27;20135;-41
2021/03/06 00:44:25;;;;;;;2.70;1.40;;;9.70;73.30;;;;;;5122919;27;20054;-44
2021/03/06 00:46:52;;;;;;;3.63;1.40;;;9.70;73.30;;;;;;5125812;27;20185;-40
2021/03/06 00:49:19;;;;;;;1.60;1.50;;;9.70;73.30;;;;;;5122450;27;20114;-42
2021/03/06 00:51:45;;;;;;;2.33;1.40;;;9.70;73.30;;;;;;5125093;27;20040;-42
2021/03/06 00:54:11;;;;;;;2.03;1.15;;;9.70;73.30;;;;;;5123120;27;20043;-44
2021/03/06 00:56:37;;;;;;;1.77;1.25;;;9.70;73.40;;;;;;5123306;27;20122;-41
2021/03/06 00:59:02;;;;;;;2.03;1.25;;;9.70;73.40;;;;;;5124376;27;20039;-41
2021/03/06 01:01:28;;;;;;;2.17;1.25;;;9.70;73.40;;;;;;5123398;27;20083;-42
2021/03/06 01:03:54;;;;;;;1.75;1.30;;;9.70;73.40;;;;;;5124033;27;20042;-44
2021/03/06 01:06:20;;;;;;;2.08;1.42;;;9.70;73.40;;;;;;5123411;27;20043;-42
2021/03/06 01:08:45;;;;;;;1.88;1.40;;;9.70;73.40;;;;;;5124004;27;20043;-42
2021/03/06 01:11:12;;;;;;;1.60;1.08;;;9.70;73.40;;;;;;5124346;27;20099;-41
2021/03/06 01:13:38;;;;;;;1.92;1.40;;;9.70;73.40;;;;;;5122241;27;20104;-42
2021/03/06 01:16:04;;;;;;;3.38;1.52;;;9.70;73.50;;;;;;5123335;27;20043;-40
2021/03/06 01:18:29;;;;;;;1.92;1.27;;;9.70;73.40;;;;;;5124655;27;20088;-41
2021/03/06 01:20:55;;;;;;;1.90;1.35;;;9.70;73.40;;;;;;5124707;27;20134;-43
2021/03/06 01:23:21;;;;;;;1.48;1.17;;;9.70;73.40;;;;;;5122314;27;20399;-42
2021/03/06 01:25:47;;;;;;;2.10;1.30;;;9.70;73.40;;;;;;5124560;27;20047;-42
2021/03/06 01:28:13;;;;;;;1.50;1.40;;;9.70;73.50;;;;;;5124287;27;20043;-42
2021/03/06 01:30:39;;;;;;;1.52;1.17;;;9.70;73.50;;;;;;5122194;27;20056;-45
2021/03/06 01:33:05;;;;;;;2.08;1.55;;;9.70;73.50;;;;;;5121257;28;20122;-43
2021/03/06 01:35:31;;;;;;;3.03;1.40;;;9.70;73.50;;;;;;5123787;28;20044;-42
2021/03/06 01:37:57;;;;;;;1.23;1.10;;;9.70;73.50;;;;;;5122829;27;20040;-43
2021/03/06 01:40:27;;;;;;;1.30;1.17;;;9.70;73.50;;;;;;5124867;27;20035;-45
2021/03/06 01:42:54;;;;;;;1.50;1.00;;;9.70;73.50;;;;;;5122324;27;20055;-42
2021/03/06 01:45:20;;;;;;;3.88;1.60;;;9.70;73.50;;;;;;5124865;27;20463;-41
2021/03/06 01:47:45;;;;;;;2.88;1.30;;;9.70;73.50;;;;;;5123329;27;20116;-42
2021/03/06 01:50:16;;;;;;;1.77;1.40;;;9.70;73.60;;;;;;5121668;27;20037;-41
2021/03/06 01:52:42;;;;;;;2.72;1.55;;;9.70;73.50;;;;;;5122883;27;20100;-42
2021/03/06 01:55:09;;;;;;;1.75;1.40;;;9.70;73.60;;;;;;5123601;28;20051;-42
2021/03/06 01:57:35;;;;;;;1.73;1.20;;;9.70;73.60;;;;;;5124392;27;20039;-40
2021/03/06 02:00:00;;;;;;;1.73;1.17;;;9.70;74.20;;;;;;5121338;28;20537;-43
2021/03/06 02:02:26;;;;;;;1.98;1.25;;;9.70;73.60;;;;;;5121775;27;20138;-45
2021/03/06 02:04:53;;;;;;;1.75;1.27;;;9.70;73.60;;;;;;5124497;28;20062;-46
2021/03/06 02:07:18;;;;;;;2.72;1.23;;;9.70;73.60;;;;;;5123399;28;20043;-41
2021/03/06 02:09:44;;;;;;;1.20;0.95;;;9.70;73.60;;;;;;5123527;28;20552;-44
2021/03/06 02:12:15;;;;;;;2.05;1.10;;;9.70;73.60;;;;;;5123092;27;20111;-46
2021/03/06 02:15:12;;;;;;;1.98;1.30;;;9.70;73.60;;;;;;5123020;28;20063;-46
2021/03/06 02:17:55;;;;;;;1.42;1.15;;;9.70;73.60;;;;;;5121836;28;20039;-44
2021/03/06 02:20:51;;;;;;;1.88;1.35;;;9.70;73.60;;;;;;5123456;28;20115;-48
2021/03/06 02:23:44;;;;;;;2.25;1.20;;;9.70;73.60;;;;;;5119856;28;20040;-42
2021/03/06 02:26:28;;;;;;;1.13;0.98;;;9.60;73.60;;;;;;5123188;28;20071;-40
2021/03/06 02:29:19;;;;;;;2.17;1.23;;;9.70;73.60;;;;;;5123856;28;20070;-42
2021/03/06 02:31:47;;;;;;;1.10;1.00;;;9.70;73.60;;;;;;5121713;28;20604;-42
2021/03/06 02:34:21;;;;;;;2.47;1.13;;;9.70;73.60;;;;;;5121818;28;20050;-42
2021/03/06 02:36:52;;;;;;;2.72;1.20;;;9.70;73.60;;;;;;5124984;27;20039;-42
2021/03/06 02:39:21;;;;;;;1.90;1.60;;;9.70;73.70;;;;;;5125333;27;20089;-38
2021/03/06 02:41:49;;;;;;;2.45;1.52;;;9.70;73.70;;;;;;5125926;27;20035;-40
2021/03/06 02:44:18;;;;;;;2.03;1.52;;;9.60;73.70;;;;;;5126524;27;20138;-41
2021/03/06 02:46:44;;;;;;;1.60;1.30;;;9.70;73.70;;;;;;5124595;27;20073;-42
2021/03/06 02:49:09;;;;;;;1.10;0.90;;;9.60;73.70;;;;;;5127161;27;20399;-41
2021/03/06 02:51:39;;;;;;;2.55;1.35;;;9.60;73.70;;;;;;5125051;27;20040;-42
2021/03/06 02:54:05;;;;;;;1.55;1.00;;;9.60;73.70;;;;;;5126372;27;20505;-42
2021/03/06 02:56:33;;;;;;;1.20;1.10;;;9.60;73.70;;;;;;5126901;27;20039;-41
2021/03/06 02:59:32;;;;;;;2.13;1.33;;;9.70;73.80;;;;;;5127429;27;20075;-41
2021/03/06 03:02:12;;;;;;;1.67;1.08;;;9.60;73.70;;;;;;5125228;27;20114;-42
2021/03/06 03:05:04;;;;;;;1.13;1.10;;;9.60;73.70;;;;;;5127340;27;20107;-41
2021/03/06 03:07:50;;;;;;;1.15;1.00;;;9.70;73.70;;;;;;5127011;27;20834;-40
2021/03/06 03:10:18;;;;;;;1.75;1.40;;;9.60;73.70;;;;;;5126379;27;20039;-40
2021/03/06 03:12:54;;;;;;;1.35;1.17;;;9.60;73.70;;;;;;5126142;27;20078;-40
2021/03/06 03:15:27;;;;;;;1.52;1.20;;;9.60;73.70;;;;;;5126308;27;20043;-42
2021/03/06 03:17:54;;;;;;;1.60;1.00;;;9.60;73.70;;;;;;5126834;27;20138;-42
2021/03/06 03:20:23;;;;;;;2.30;1.10;;;9.60;73.70;;;;;;5125183;27;20070;-43
2021/03/06 03:22:55;;;;;;;1.00;0.90;;;9.60;73.70;;;;;;5123923;27;20070;-47
2021/03/06 03:25:21;;;;;;;2.80;1.10;;;9.60;73.70;;;;;;5124663;27;20035;-41
2021/03/06 03:27:49;;;;;;;1.27;1.10;;;9.60;73.70;;;;;;5126115;27;20055;-42
2021/03/06 03:30:17;;;;;;;1.58;1.10;;;9.60;73.70;;;;;;5125088;27;20039;-44
2021/03/06 03:32:48;;;;;;;2.08;1.23;;;9.60;73.80;;;;;;5125819;27;20114;-44
2021/03/06 03:35:16;;;;;;;2.95;1.40;;;9.60;73.80;;;;;;5126211;27;20043;-47
2021/03/06 03:37:43;;;;;;;1.42;1.10;;;9.60;73.80;;;;;;5126383;27;20132;-43
2021/03/06 03:40:12;;;;;;;1.00;0.90;;;9.60;73.80;;;;;;5123504;27;20047;-45
2021/03/06 03:42:38;;;;;;;2.70;2.00;;;9.60;73.80;;;;;;5124726;27;20043;-47
2021/03/06 03:45:07;;;;;;;1.02;0.93;;;9.60;73.70;;;;;;5125454;27;20054;-45
2021/03/06 03:47:35;;;;;;;1.50;1.30;;;9.60;73.80;;;;;;5124595;27;20058;-42
2021/03/06 03:50:01;;;;;;;1.42;1.33;;;9.60;73.70;;;;;;5123921;27;20043;-44
2021/03/06 03:52:28;;;;;;;2.17;1.30;;;9.60;73.80;;;;;;5125849;27;20043;-42
2021/03/06 03:54:54;;;;;;;1.83;1.33;;;9.60;73.80;;;;;;5125748;27;20040;-42
2021/03/06 03:57:21;;;;;;;1.52;1.13;;;9.60;73.80;;;;;;5124368;27;20040;-42
2021/03/06 03:59:46;;;;;;;1.58;1.13;;;9.60;73.80;;;;;;5125757;27;20062;-42
2021/03/06 04:02:21;;;;;;;1.63;1.42;;;9.60;73.80;;;;;;5123449;27;20071;-42
2021/03/06 04:04:47;;;;;;;2.17;1.02;;;9.60;73.80;;;;;;5125356;27;20064;-44
2021/03/06 04:07:12;;;;;;;2.03;1.50;;;9.60;73.80;;;;;;5123664;27;20044;-41
2021/03/06 04:09:38;;;;;;;1.70;0.90;;;9.60;73.80;;;;;;5124610;27;20070;-42
2021/03/06 04:12:04;;;;;;;1.35;1.17;;;9.60;73.80;;;;;;5123495;27;20454;-42
2021/03/06 04:14:30;;;;;;;2.00;1.33;;;9.60;73.80;;;;;;5125087;27;20081;-40
2021/03/06 04:16:55;;;;;;;2.00;1.58;;;9.60;73.80;;;;;;5125906;27;20067;-41
2021/03/06 04:19:21;;;;;;;1.67;1.00;;;9.60;73.80;;;;;;5121895;27;20043;-43
2021/03/06 04:21:47;;;;;;;1.27;0.95;;;9.60;73.80;;;;;;5125031;27;20050;-42
2021/03/06 04:24:12;;;;;;;2.25;1.20;;;9.60;73.80;;;;;;5125217;27;20039;-42
2021/03/06 04:26:38;;;;;;;1.40;1.08;;;9.60;73.80;;;;;;5123462;27;20130;-43
2021/03/06 04:29:04;;;;;;;1.33;1.00;;;9.60;73.80;;;;;;5124398;27;20046;-41
2021/03/06 04:31:29;;;;;;;2.30;1.33;;;9.60;73.80;;;;;;5122917;27;20047;-41
2021/03/06 04:33:55;;;;;;;1.30;1.10;;;9.60;73.80;;;;;;5125624;27;20050;-42
2021/03/06 04:36:21;;;;;;;1.10;1.00;;;9.60;73.90;;;;;;5125431;27;20407;-42
2021/03/06 04:38:46;;;;;;;1.13;1.02;;;9.60;73.90;;;;;;5122862;27;20407;-43
2021/03/06 04:41:12;;;;;;;1.50;1.08;;;9.60;73.90;;;;;;5126199;27;20043;-42
2021/03/06 04:43:37;;;;;;;1.35;0.90;;;9.60;73.80;;;;;;5123806;27;20039;-41
2021/03/06 04:46:03;;;;;;;1.10;1.00;;;9.60;73.90;;;;;;5126024;27;20496;-42
2021/03/06 04:48:29;;;;;;;2.00;1.35;;;9.60;73.90;;;;;;5122474;27;20530;-40
2021/03/06 04:50:54;;;;;;;1.55;1.20;;;9.60;73.90;;;;;;5125377;27;20404;-42
2021/03/06 04:53:20;;;;;;;3.42;1.10;;;9.60;73.90;;;;;;5123657;27;20039;-41
2021/03/06 04:55:46;;;;;;;1.40;1.02;;;9.60;73.80;;;;;;5124437;27;20186;-43
2021/03/06 04:58:12;;;;;;;1.73;1.25;;;9.60;73.90;;;;;;5122024;27;20487;-42
2021/03/06 05:00:38;;;;;;;1.52;1.10;;;9.60;73.80;;;;;;5124963;27;20043;-42
2021/03/06 05:03:03;;;;;;;0.93;0.80;;;9.60;73.80;;;;;;5123268;27;20038;-41
2021/03/06 05:05:29;;;;;;;2.05;1.10;;;9.60;73.80;;;;;;5124650;27;20074;-42
2021/03/06 05:07:55;;;;;;;1.67;1.38;;;9.60;73.90;;;;;;5123119;27;20047;-42
2021/03/06 05:10:23;;;;;;;1.00;0.90;;;9.60;73.90;;;;;;5125288;27;20050;-41
2021/03/06 05:12:49;;;;;;;1.33;1.23;;;9.60;73.80;;;;;;5122814;27;20507;-43
2021/03/06 05:15:14;;;;;;;1.52;1.05;;;9.60;73.80;;;;;;5122710;27;20039;-41
2021/03/06 05:17:40;;;;;;;1.35;1.10;;;9.60;73.80;;;;;;5123762;27;20046;-42
2021/03/06 05:20:06;;;;;;;1.63;1.13;;;9.60;73.80;;;;;;5124516;27;20044;-42
2021/03/06 05:22:32;;;;;;;2.30;1.40;;;9.60;73.80;;;;;;5121638;27;20071;-43
2021/03/06 05:24:58;;;;;;;1.55;1.00;;;9.60;73.80;;;;;;5124103;27;20078;-42
2021/03/06 05:27:24;;;;;;;1.95;1.20;;;9.60;73.80;;;;;;5124200;27;20479;-41
2021/03/06 05:29:50;;;;;;;1.73;0.98;;;9.60;73.80;;;;;;5121878;27;20592;-42
2021/03/06 05:32:15;;;;;;;2.42;1.00;;;9.60;73.90;;;;;;5123483;27;20037;-43
2021/03/06 05:34:41;;;;;;;0.90;0.88;;;9.60;73.90;;;;;;5122277;28;20050;-43
2021/03/06 05:37:07;;;;;;;1.00;0.90;;;9.60;73.80;;;;;;5124466;28;20051;-42
2021/03/06 05:39:32;;;;;;;2.28;0.90;;;9.60;73.90;;;;;;5122642;28;20547;-48
2021/03/06 05:41:58;;;;;;;1.73;1.00;;;9.60;73.80;;;;;;5123729;27;20394;-44
2021/03/06 05:44:25;;;;;;;1.15;0.85;;;9.60;73.80;;;;;;5121467;28;20047;-42
2021/03/06 05:46:52;;;;;;;1.10;0.82;;;9.60;73.80;;;;;;5123850;27;20047;-47
2021/03/06 05:49:17;;;;;;;1.13;1.02;;;9.60;73.80;;;;;;5119220;27;20048;-48
2021/03/06 05:51:46;;;;;;;1.48;1.27;;;9.60;73.90;;;;;;5113268;28;20043;-44
2021/03/06 05:54:13;;;;;;;1.80;1.13;;;9.60;73.90;;;;;;5114340;28;20042;-43
2021/03/06 05:56:41;;;;;;;1.50;1.13;;;9.60;73.90;;;;;;5113423;28;20101;-46
2021/03/06 05:59:10;;;;;;;1.27;1.00;;;9.60;73.80;;;;;;5112885;28;20441;-45
2021/03/06 06:01:38;;;;;;;1.00;0.90;;;9.60;73.90;;;;;;5112399;28;20039;-47
2021/03/06 06:04:05;;;;;;;0.80;0.80;;;9.60;73.80;;;;;;5116505;28;20043;-44
2021/03/06 06:06:35;;;;;;;1.00;0.90;;;9.60;73.80;;;;;;5131821;27;20043;-43
2021/03/06 06:09:01;;;;;;;2.40;1.10;;;9.60;73.80;;;;;;5131945;27;20063;-41
2021/03/06 06:11:28;;;;;;;1.23;0.98;;;9.60;73.80;;;;;;5134622;27;20094;-46
2021/03/06 06:14:02;;;;;;;1.75;1.05;;;9.60;73.80;;;;;;5137123;27;20050;-40
2021/03/06 06:16:32;;;;;;;1.90;1.23;;;9.60;73.80;;;;;;5133077;27;20054;-43
2021/03/06 06:19:04;;;;;;;0.95;0.88;;;9.60;73.80;;;;;;5115777;28;20071;-42
2021/03/06 06:21:43;;;;;;;1.88;1.10;;;9.60;73.90;;;;;;5129363;27;20104;-44
2021/03/06 06:24:22;;;;;;;1.58;1.40;;;9.60;73.80;;;;;;5137408;27;20072;-42
2021/03/06 06:27:03;;;;;;;1.50;1.20;;;9.60;73.80;;;;;;5122484;27;20394;-43
2021/03/06 06:29:51;;;;;;;2.08;1.00;;;9.60;73.80;;;;;;5122961;27;20507;-46
2021/03/06 06:32:19;;;;;;;1.05;0.95;;;9.60;73.80;;;;;;5135046;27;20379;-43
2021/03/06 06:35:04;;;;;;;1.63;1.08;;;9.60;73.80;;;;;;5130353;27;20044;-47
2021/03/06 06:37:30;;;;;;;1.52;0.93;;;9.60;73.80;;;;;;5118978;27;20050;-46
2021/03/06 06:39:56;;;;;;;1.00;0.93;;;9.60;73.80;;;;;;5127201;27;20111;-40
2021/03/06 06:42:33;;;;;;;1.60;1.08;;;9.60;73.80;;;;;;5125172;27;20043;-40
2021/03/06 06:44:59;;;;;;;3.70;1.20;;;9.60;73.80;;;;;;5127355;27;20071;-45
2021/03/06 06:47:36;;;;;;;1.42;0.90;;;9.60;73.80;;;;;;5125047;27;20055;-44
2021/03/06 06:50:05;;;;;;;1.10;0.77;;;9.60;73.80;;;;;;5124896;27;20047;-43
2021/03/06 06:52:44;;;;;;;0.85;0.85;;;9.60;73.80;;;;;;5126394;27;20043;-45
2021/03/06 06:55:12;;;;;;;1.17;1.08;;;9.60;73.80;;;;;;5126420;27;20043;-40
2021/03/06 06:57:54;;;;;;;1.95;1.48;;;9.60;73.80;;;;;;5136750;27;20402;-41
2021/03/06 07:00:20;;;;;;;1.67;1.13;;;9.60;73.80;;;;;;5136796;27;20046;-40
2021/03/06 07:03:01;;;;;;;1.38;0.90;;;9.60;73.80;;;;;;5136582;27;20055;-45
2021/03/06 07:05:38;;;;;;;1.92;1.08;;;9.60;73.80;;;;;;5136620;27;20047;-42
2021/03/06 07:08:08;;;;;;;1.95;0.98;;;9.60;73.90;;;;;;5136790;27;20067;-47
2021/03/06 07:10:37;;;;;;;1.00;1.00;;;9.60;73.80;;;;;;5136708;27;20134;-42
2021/03/06 07:13:09;;;;;;;1.25;1.10;;;9.60;73.80;;;;;;5136381;27;20047;-43
2021/03/06 07:15:37;;;;;;;1.13;0.75;;;9.60;73.80;;;;;;5136676;27;20096;-42
2021/03/06 07:18:04;;;;;;;0.70;0.70;;;9.60;73.80;;;;;;5135955;27;20078;-42
2021/03/06 07:20:33;;;;;;;1.42;0.90;;;9.60;73.80;;;;;;5126396;27;20103;-42
2021/03/06 07:23:24;;;;;;;5.78;1.52;;;9.60;73.80;;;;;;5120239;27;20171;-43
2021/03/06 07:25:57;;;;;;;2.17;1.25;;;9.50;73.40;;;;;;5115500;28;20086;-40
2021/03/06 07:28:24;;;;;;;2.60;1.35;;;9.50;73.50;;;;;;5115719;28;20089;-45
2021/03/06 07:30:50;;;;;;;4.43;1.30;;;9.50;73.60;;;;;;5115579;28;20051;-42
2021/03/06 07:33:17;;;;;;;3.28;1.30;;;9.50;73.60;;;;;;5133451;27;20045;-40
2021/03/06 07:35:45;;;;;;;0.93;0.88;;;9.50;73.60;;;;;;5136128;27;20078;-43
2021/03/06 07:38:15;;;;;;;3.58;0.98;;;9.50;73.60;;;;;;5135702;27;20478;-42
2021/03/06 07:40:42;;;;;;;1.05;0.77;;;9.50;73.60;;;;;;5136001;27;20469;-44
2021/03/06 07:43:16;;;;;;;2.13;1.05;;;9.50;73.60;;;;;;5135946;27;20073;-43
2021/03/06 07:45:45;;;;;;;1.40;0.90;;;9.50;73.60;;;;;;5136151;27;20080;-41
2021/03/06 07:48:17;;;;;;;1.95;1.02;;;9.50;73.60;;;;;;5135639;27;20055;-43
2021/03/06 07:50:45;;;;;;;2.53;1.27;;;9.50;73.70;;;;;;5135335;27;20039;-43
2021/03/06 07:53:12;;;;;;;6.82;1.15;;;9.50;73.70;;;;;;5135619;27;20541;-43
2021/03/06 07:55:39;;;;;;;2.05;1.02;;;9.50;73.70;;;;;;5135674;27;20043;-43
2021/03/06 07:58:19;;;;;;;5.13;1.35;;;9.50;73.70;;;;;;5135540;27;20051;-41
2021/03/06 08:00:53;;;;;;;1.80;1.17;;;9.50;73.70;;;;;;5135591;27;20436;-41
2021/03/06 08:03:22;;;;;;;2.75;1.60;;;9.50;73.70;;;;;;5135532;27;20074;-42
2021/03/06 08:05:49;;;;;;;4.70;1.17;;;9.50;73.40;;;;;;5134932;27;20487;-43
2021/03/06 08:08:33;;;;;;;1.80;1.00;;;9.50;73.50;;;;;;5135350;27;20473;-44
2021/03/06 08:11:07;;;;;;;3.95;1.40;;;9.40;73.50;;;;;;5135571;27;20563;-42
2021/03/06 08:13:38;;;;;;;5.22;1.10;;;9.40;73.60;;;;;;5135230;27;20487;-42
2021/03/06 08:18:48;;;;;;;2.80;1.13;;;9.40;73.70;;;;;;5134658;27;20086;-42
2021/03/06 08:21:48;;;;;;;2.95;1.52;;;9.40;73.70;;;;;;5123216;27;20043;-42
2021/03/06 08:24:13;;;;;;;2.33;0.98;;;9.40;73.70;;;;;;5123457;27;20047;-44
2021/03/06 08:26:52;;;;;;;2.97;1.00;;;9.40;73.70;;;;;;5122987;27;20183;-41
2021/03/06 08:29:24;;;;;;;2.38;1.20;;;9.40;73.70;;;;;;5123163;27;20075;-41
2021/03/06 08:31:56;;;;;;;1.20;1.00;;;9.40;73.80;;;;;;5124081;27;20063;-41
2021/03/06 08:34:33;;;;;;;3.63;1.52;;;9.40;73.80;;;;;;5120953;27;20039;-42
2021/03/06 08:37:16;;;;;;;2.40;0.98;;;9.40;73.80;;;;;;5122607;27;20067;-42
2021/03/06 08:39:49;;;;;;;2.80;1.35;;;9.40;73.90;;;;;;5123446;27;20051;-41
2021/03/06 08:42:17;;;;;;;2.22;1.10;;;9.40;73.80;;;;;;5123193;27;20118;-42
2021/03/06 08:44:43;;;;;;;1.20;0.93;;;9.40;73.90;;;;;;5123252;27;20084;-42
2021/03/06 08:47:09;;;;;;;1.25;1.15;;;9.40;73.90;;;;;;5123492;27;20055;-41
2021/03/06 08:49:36;;;;;;;2.30;1.33;;;9.40;74.50;;;;;;5124934;27;20059;-42
2021/03/06 08:52:03;;;;;;;1.63;1.00;;;9.40;73.90;;;;;;5122569;27;20070;-41
2021/03/06 08:54:39;;;;;;;1.48;1.20;;;9.50;73.90;;;;;;5123696;27;20074;-42
2021/03/06 08:57:05;;;;;;;;;;;9.40;73.90;;;;;;5122152;27;20399;-43
2021/03/06 08:59:37;;;;;;;2.45;0.93;;;9.40;74.00;;;;;;5123403;27;19926;-43
2021/03/06 09:02:14;;;;;;;1.65;0.82;;;9.40;73.90;;;;;;5122980;27;20050;-43
2021/03/06 09:04:39;;;;;;;2.15;1.10;;;9.40;73.90;;;;;;5122886;27;20071;-42
2021/03/06 09:07:09;;;;;;;2.22;0.82;;;9.50;74.00;;;;;;5123676;27;20073;-44
2021/03/06 09:09:35;;;;;;;1.42;1.27;;;9.40;74.00;;;;;;5124645;27;20048;-43
2021/03/06 09:12:02;;;;;;;1.38;0.90;;;9.50;74.00;;;;;;5122773;27;20039;-45
2021/03/06 09:14:28;;;;;;;1.25;1.08;;;9.50;74.00;;;;;;5122132;27;20114;-43
2021/03/06 09:16:54;;;;;;;1.83;1.00;;;9.50;74.00;;;;;;5123960;27;20039;-44
2021/03/06 09:19:27;;;;;;;0.75;0.73;;;9.50;74.00;;;;;;5123340;27;20058;-43
2021/03/06 09:22:09;;;;;;;0.93;0.65;;;9.50;74.10;;;;;;5122216;27;20047;-43
2021/03/06 09:24:52;;;;;;;0.90;0.80;;;9.50;74.00;;;;;;5122748;27;20115;-43
2021/03/06 09:27:18;;;;;;;1.77;1.00;;;9.50;74.00;;;;;;5119042;27;20043;-46
2021/03/06 09:29:45;;;;;;;1.08;0.90;;;9.50;74.00;;;;;;5113338;28;20489;-42
2021/03/06 09:32:11;;;;;;;1.27;0.93;;;9.50;74.00;;;;;;5122757;28;20487;-42
2021/03/06 09:34:42;;;;;;;1.58;0.85;;;9.50;74.00;;;;;;5134021;27;20491;-42
2021/03/06 09:37:18;;;;;;;0.70;0.65;;;9.50;74.00;;;;;;5134026;27;20047;-42
2021/03/06 09:39:44;;;;;;;1.08;0.88;;;9.60;74.10;;;;;;5134066;27;20051;-45
2021/03/06 09:42:15;;;;;;;1.63;0.85;;;9.50;74.00;;;;;;5133938;27;20075;-43
2021/03/06 09:44:48;;;;;;;0.57;0.57;;;9.60;74.10;;;;;;5134860;27;20039;-44
2021/03/06 09:47:23;;;;;;;0.45;0.45;;;9.60;74.10;;;;;;5130363;27;20052;-43
2021/03/06 09:49:49;;;;;;;;;;;9.60;74.10;;;;;;5118053;28;20513;-46
2021/03/06 09:52:15;;;;;;;1.08;1.00;;;9.60;74.10;;;;;;5117538;28;19919;-44
2021/03/06 09:54:41;;;;;;;0.93;0.60;;;9.60;74.10;;;;;;5117072;28;20483;-46
2021/03/06 09:57:07;;;;;;;4.47;1.00;;;9.60;74.00;;;;;;5117185;28;20067;-46
2021/03/06 09:59:41;;;;;;;1.88;0.93;;;9.60;74.00;;;;;;5117470;28;20122;-42
2021/03/06 10:02:09;;;;;;;1.17;0.70;;;9.60;74.00;;;;;;5117550;28;20047;-45
2021/03/06 10:04:35;;;;;;;0.80;0.75;;;9.60;74.00;;;;;;5117299;28;20050;-44
2021/03/06 10:07:06;;;;;;;1.40;0.77;;;9.60;74.00;;;;;;5117273;28;20458;-42
2021/03/06 10:09:33;;;;;;;1.17;0.85;;;9.60;74.00;;;;;;5116875;28;20114;-47
2021/03/06 10:12:08;;;;;;;1.80;0.80;;;9.60;74.00;;;;;;5116939;28;20051;-44
2021/03/06 10:14:35;;;;;;;0.70;0.70;;;9.60;74.00;;;;;;5117325;28;20043;-42
2021/03/06 10:17:03;;;;;;;0.80;0.68;;;9.60;73.90;;;;;;5116989;28;20475;-43
2021/03/06 10:19:31;;;;;;;1.27;0.55;;;9.70;74.00;;;;;;5116915;28;20047;-43
2021/03/06 10:22:09;;;;;;;1.15;0.60;;;9.70;74.00;;;;;;5117056;28;20047;-46
2021/03/06 10:25:04;;;;;;;0.60;0.60;;;9.70;74.00;;;;;;5116640;28;20047;-44
2021/03/06 10:27:36;;;;;;;1.30;0.70;;;9.70;73.90;;;;;;5113844;28;20048;-43
2021/03/06 10:30:23;;;;;;;0.80;0.70;;;9.70;74.00;;;;;;5105510;28;20048;-45
2021/03/06 10:32:55;;;;;;;1.48;0.95;;;9.70;73.90;;;;;;5105228;28;20147;-42
2021/03/06 10:35:42;;;;;;;0.47;0.43;;;9.70;73.90;;;;;;5105058;28;20372;-40
2021/03/06 10:38:11;;;;;;;0.70;0.63;;;9.80;74.00;;;;;;5106241;28;20128;-53
2021/03/06 10:40:44;;;;;;;0.57;0.50;;;9.70;73.90;;;;;;5104658;28;20071;-53
2021/03/06 10:43:31;;;;;;;0.93;0.70;;;9.70;73.90;;;;;;5105748;28;20551;-48
2021/03/06 10:46:12;;;;;;;1.00;0.70;;;9.70;74.50;;;;;;5106481;28;20066;-49
2021/03/06 10:48:38;;;;;;;0.98;0.70;;;9.70;73.80;;;;;;5121675;27;20073;-46
2021/03/06 10:51:05;;;;;;;1.17;1.00;;;9.70;73.80;;;;;;5125488;27;20110;-46
2021/03/06 10:53:31;;;;;;;0.55;0.55;;;9.70;73.80;;;;;;5125829;27;20050;-46
2021/03/06 10:55:57;;;;;;;1.35;0.77;;;9.70;73.80;;;;;;5126767;27;20043;-45
2021/03/06 10:58:47;;;;;;;0.98;0.65;;;9.80;73.90;;;;;;5124859;27;20048;-45
2021/03/06 11:01:15;;;;;;;0.60;0.60;;;9.70;73.80;;;;;;5132682;27;20113;-46
2021/03/06 11:03:46;;;;;;;0.50;0.50;;;9.80;73.90;;;;;;5136799;27;20035;-46
2021/03/06 11:06:12;;;;;;;0.80;0.63;;;9.80;73.80;;;;;;5136580;27;20444;-43
2021/03/06 11:08:39;;;;;;;1.05;0.68;;;9.80;73.80;;;;;;5136727;27;20047;-47
2021/03/06 11:11:07;;;;;;;0.60;0.60;;;9.80;73.80;;;;;;5136487;27;20043;-43
2021/03/06 11:13:44;;;;;;;0.60;0.60;;;9.70;74.40;;;;;;5136568;27;20039;-44
2021/03/06 11:16:14;;;;;;;0.68;0.50;;;9.70;73.80;;;;;;5136675;27;20043;-44
2021/03/06 11:18:42;;;;;;;0.70;0.70;;;9.80;73.80;;;;;;5136408;27;20498;-47
2021/03/06 11:21:11;;;;;;;1.08;0.40;;;9.80;73.80;;;;;;5136283;27;20051;-48
2021/03/06 11:23:38;;;;;;;1.08;0.60;;;9.80;73.80;;;;;;5133295;27;20039;-42
2021/03/06 11:26:04;;;;;;;0.80;0.55;;;9.80;73.70;;;;;;5124844;27;20039;-43
2021/03/06 11:28:31;;;;;;;1.25;0.50;;;9.80;73.70;;;;;;5126493;27;20043;-46
2021/03/06 11:30:57;;;;;;;0.75;0.60;;;9.80;73.70;;;;;;5124480;27;20495;-44
2021/03/06 11:33:23;;;;;;;0.60;0.60;;;9.80;73.70;;;;;;5126840;27;20039;-45
2021/03/06 11:35:50;;;;;;;0.90;0.80;;;9.80;73.70;;;;;;5124336;27;20122;-47
2021/03/06 11:38:18;;;;;;;0.90;0.80;;;9.80;73.70;;;;;;5124780;27;20164;-50
2021/03/06 11:40:46;;;;;;;1.23;0.68;;;9.80;73.70;;;;;;5125016;27;20073;-52
2021/03/06 11:43:13;;;;;;;0.52;0.52;;;9.80;73.70;;;;;;5126179;27;20035;-42
2021/03/06 11:45:39;;;;;;;2.05;0.70;;;9.80;73.70;;;;;;5124812;27;20039;-49
2021/03/06 11:48:06;;;;;;;0.75;0.63;;;9.80;73.60;;;;;;5124551;27;20100;-49
2021/03/06 11:50:34;;;;;;;0.50;0.50;;;9.80;73.60;;;;;;5125985;27;20040;-45
2021/03/06 11:53:00;;;;;;;0.40;0.40;;;9.80;73.70;;;;;;5125017;27;20497;-46
2021/03/06 11:55:26;;;;;;;0.60;0.60;;;9.80;73.60;;;;;;5124747;27;20133;-47
2021/03/06 11:57:52;;;;;;;0.57;0.50;;;9.80;73.60;;;;;;5125650;27;20039;-45
2021/03/06 12:00:23;;;;;;;1.25;0.60;;;9.90;73.70;;;;;;5124235;27;20044;-43
2021/03/06 12:02:50;;;;;;;1.27;0.50;;;9.90;73.70;;;;;;5123657;27;20551;-42
2021/03/06 12:05:17;;;;;;;1.27;0.73;;;9.90;73.60;;;;;;5123840;27;20400;-44
2021/03/06 12:07:44;;;;;;;0.52;0.52;;;9.80;73.60;;;;;;5124068;27;20391;-42
2021/03/06 12:10:12;;;;;;;0.47;0.47;;;9.90;73.60;;;;;;5125326;27;20051;-46
2021/03/06 12:12:39;;;;;;;0.52;0.50;;;9.90;73.60;;;;;;5123795;27;20043;-49
2021/03/06 12:15:06;;;;;;;0.50;0.50;;;9.90;73.60;;;;;;5124277;27;20063;-45
2021/03/06 12:17:32;;;;;;;1.00;0.75;;;9.90;73.60;;;;;;5123380;27;20075;-40
2021/03/06 12:19:58;;;;;;;0.43;0.43;;;9.90;73.60;;;;;;5124915;27;20039;-45
2021/03/06 12:22:24;;;;;;;0.85;0.50;;;9.90;73.60;;;;;;5124996;27;20085;-40
2021/03/06 12:24:50;;;;;;;0.70;0.70;;;9.90;73.60;;;;;;5123183;27;20039;-41
2021/03/06 12:27:16;;;;;;;0.73;0.50;;;9.90;73.60;;;;;;5125249;27;20043;-41
2021/03/06 12:29:42;;;;;;;1.85;0.57;;;9.90;73.60;;;;;;5124261;27;20039;-40
2021/03/06 12:32:08;;;;;;;0.68;0.68;;;9.90;73.50;;;;;;5125739;27;20090;-43
2021/03/06 12:34:34;;;;;;;0.85;0.60;;;9.90;73.50;;;;;;5122808;27;20490;-44
2021/03/06 12:36:59;;;;;;;0.60;0.60;;;9.90;73.50;;;;;;5124581;27;20050;-45
2021/03/06 12:39:25;;;;;;;0.60;0.52;;;9.90;73.50;;;;;;5124519;27;20181;-40
2021/03/06 12:41:52;;;;;;;0.55;0.55;;;9.90;73.50;;;;;;5122843;27;20043;-41
2021/03/06 12:44:18;;;;;;;0.47;0.45;;;9.90;73.50;;;;;;5125377;27;20398;-46
2021/03/06 12:46:47;;;;;;;0.57;0.50;;;9.90;73.50;;;;;;5134409;27;20039;-43
2021/03/06 12:49:14;;;;;;;0.45;0.45;;;9.90;73.50;;;;;;5134137;27;20407;-47
2021/03/06 12:51:39;;;;;;;0.70;0.63;;;9.90;73.50;;;;;;5132748;27;20051;-45
2021/03/06 12:54:06;;;;;;;0.55;0.55;;;9.90;73.50;;;;;;5134295;27;20065;-42
2021/03/06 12:56:31;;;;;;;0.38;0.38;;;9.90;73.40;;;;;;5134442;27;20046;-41
2021/03/06 12:58:57;;;;;;;0.40;0.40;;;9.90;73.40;;;;;;5134253;27;20050;-42
2021/03/06 13:01:23;;;;;;;0.40;0.40;;;9.90;73.50;;;;;;5134022;27;20415;-43
2021/03/06 13:03:48;;;;;;;0.95;0.50;;;9.90;73.50;;;;;;5130220;27;20479;-43
2021/03/06 13:06:15;;;;;;;0.80;0.70;;;9.90;73.40;;;;;;5122844;27;20047;-44
2021/03/06 13:08:40;;;;;;;0.52;0.52;;;9.90;73.40;;;;;;5123214;27;20046;-48
2021/03/06 13:11:06;;;;;;;0.50;0.50;;;10.00;73.40;;;;;;5124593;27;20047;-45